LIMG Airport Information

Runway Information
Runway 09 Length 4688 ft width 148 ft
Elevation 145 ft Threshold 295 ft Heading 94
Runway 27 Length 4688 ft Width 148 ft
Elevation 103 ft Threshold 0 ft Heading 274
Airport Frequencies
Type AFIS Name INFO Frequency 123.85 MHZ
Airport Navaids
Type NDB Name Albenga Frequency 420 KHZ
Type VOR-DME Name Albenga Frequency 116950 KHZ
Airport Weather Information & NOTAM
ADDS - METARS form results

(0833 UTC 14 October 2019)
Data provider http://aviationweather.gov/metar/data/
 
METAR text: LIMG 140750Z 00000KT 9999 BKN035 19/17 Q1021
Conditions at: LIMG (ALBENGA , IT) observed 0750 UTC 14 October 2019
Temperature: 19.0°C (66°F)
Dewpoint: 17.0°C (63°F) [RH = 88%]
Pressure (altimeter): 30.15 inches Hg (1021.0 mb)
Winds: calm
Visibility: 6 or more miles (10+ km)
Ceiling: 3500 feet AGL
Clouds: broken clouds at 3500 feet AGL
Weather: no significant weather observed at this time